sensor_id;sensor_type;location;lat;lon;timestamp;temperature;humidity
17948;DHT22;9099;47.958;11.366;2023-09-07T00:00:37;19.10;99.90
17948;DHT22;9099;47.958;11.366;2023-09-07T00:03:05;19.10;99.90
17948;DHT22;9099;47.958;11.366;2023-09-07T00:05:32;19.20;99.90
17948;DHT22;9099;47.958;11.366;2023-09-07T00:07:59;19.10;99.90
17948;DHT22;9099;47.958;11.366;2023-09-07T00:10:26;19.00;99.90
17948;DHT22;9099;47.958;11.366;2023-09-07T00:12:53;18.80;99.90
17948;DHT22;9099;47.958;11.366;2023-09-07T00:15:20;18.70;99.90
17948;DHT22;9099;47.958;11.366;2023-09-07T00:17:47;18.70;99.90
17948;DHT22;9099;47.958;11.366;2023-09-07T00:20:16;18.60;99.90
17948;DHT22;9099;47.958;11.366;2023-09-07T00:22:44;18.80;99.90
17948;DHT22;9099;47.958;11.366;2023-09-07T00:25:11;18.80;99.90
17948;DHT22;9099;47.958;11.366;2023-09-07T00:27:39;18.70;99.90
17948;DHT22;9099;47.958;11.366;2023-09-07T00:30:06;18.70;99.90
17948;DHT22;9099;47.958;11.366;2023-09-07T00:32:35;18.60;99.90
17948;DHT22;9099;47.958;11.366;2023-09-07T00:35:02;18.50;99.90
17948;DHT22;9099;47.958;11.366;2023-09-07T00:37:31;18.40;99.90
17948;DHT22;9099;47.958;11.366;2023-09-07T00:39:58;18.40;99.90
17948;DHT22;9099;47.958;11.366;2023-09-07T00:42:24;18.40;99.90
17948;DHT22;9099;47.958;11.366;2023-09-07T00:44:51;18.30;99.90
17948;DHT22;9099;47.958;11.366;2023-09-07T00:47:18;18.40;99.90
17948;DHT22;9099;47.958;11.366;2023-09-07T00:49:45;18.60;99.90
17948;DHT22;9099;47.958;11.366;2023-09-07T00:52:13;18.70;99.90
17948;DHT22;9099;47.958;11.366;2023-09-07T00:54:42;18.70;99.90
17948;DHT22;9099;47.958;11.366;2023-09-07T00:57:09;18.80;99.90
17948;DHT22;9099;47.958;11.366;2023-09-07T00:59:36;18.80;99.90
17948;DHT22;9099;47.958;11.366;2023-09-07T01:02:03;18.90;99.90
17948;DHT22;9099;47.958;11.366;2023-09-07T01:04:31;18.90;99.90
17948;DHT22;9099;47.958;11.366;2023-09-07T01:07:03;18.90;99.90
17948;DHT22;9099;47.958;11.366;2023-09-07T01:09:32;18.80;99.90
17948;DHT22;9099;47.958;11.366;2023-09-07T01:12:04;18.70;99.90
17948;DHT22;9099;47.958;11.366;2023-09-07T01:14:36;18.70;99.90
17948;DHT22;9099;47.958;11.366;2023-09-07T01:17:03;18.60;99.90
17948;DHT22;9099;47.958;11.366;2023-09-07T01:19:31;18.60;99.90
17948;DHT22;9099;47.958;11.366;2023-09-07T01:22:00;18.50;99.90
17948;DHT22;9099;47.958;11.366;2023-09-07T01:24:30;18.40;99.90
17948;DHT22;9099;47.958;11.366;2023-09-07T01:26:58;18.30;99.90
17948;DHT22;9099;47.958;11.366;2023-09-07T01:29:25;18.10;99.90
17948;DHT22;9099;47.958;11.366;2023-09-07T01:31:54;17.90;99.90
17948;DHT22;9099;47.958;11.366;2023-09-07T01:34:22;17.60;99.90
17948;DHT22;9099;47.958;11.366;2023-09-07T01:36:49;17.50;99.90
17948;DHT22;9099;47.958;11.366;2023-09-07T01:39:17;17.40;99.90
17948;DHT22;9099;47.958;11.366;2023-09-07T01:41:44;17.50;99.90
17948;DHT22;9099;47.958;11.366;2023-09-07T01:44:11;17.70;99.90
17948;DHT22;9099;47.958;11.366;2023-09-07T01:46:38;17.90;99.90
17948;DHT22;9099;47.958;11.366;2023-09-07T01:49:05;18.00;99.90
17948;DHT22;9099;47.958;11.366;2023-09-07T01:51:31;18.00;99.90
17948;DHT22;9099;47.958;11.366;2023-09-07T01:53:59;18.00;99.90
17948;DHT22;9099;47.958;11.366;2023-09-07T01:56:27;18.00;99.90
17948;DHT22;9099;47.958;11.366;2023-09-07T01:58:54;17.90;99.90
17948;DHT22;9099;47.958;11.366;2023-09-07T02:01:22;17.80;99.90
17948;DHT22;9099;47.958;11.366;2023-09-07T02:03:48;17.90;99.90
17948;DHT22;9099;47.958;11.366;2023-09-07T02:06:15;17.90;99.90
17948;DHT22;9099;47.958;11.366;2023-09-07T02:08:42;17.90;99.90
17948;DHT22;9099;47.958;11.366;2023-09-07T02:11:09;17.90;99.90
17948;DHT22;9099;47.958;11.366;2023-09-07T02:13:37;17.80;99.90
17948;DHT22;9099;47.958;11.366;2023-09-07T02:16:04;17.80;99.90
17948;DHT22;9099;47.958;11.366;2023-09-07T02:18:31;17.80;99.90
17948;DHT22;9099;47.958;11.366;2023-09-07T02:21:01;17.80;99.90
17948;DHT22;9099;47.958;11.366;2023-09-07T02:23:29;17.70;99.90
17948;DHT22;9099;47.958;11.366;2023-09-07T02:25:56;17.50;99.90
17948;DHT22;9099;47.958;11.366;2023-09-07T02:28:23;17.50;99.90
17948;DHT22;9099;47.958;11.366;2023-09-07T02:30:52;17.50;99.90
17948;DHT22;9099;47.958;11.366;2023-09-07T02:33:19;17.40;99.90
17948;DHT22;9099;47.958;11.366;2023-09-07T02:35:48;17.40;99.90
17948;DHT22;9099;47.958;11.366;2023-09-07T02:38:15;17.40;99.90
17948;DHT22;9099;47.958;11.366;2023-09-07T02:40:42;17.40;99.90
17948;DHT22;9099;47.958;11.366;2023-09-07T02:43:09;17.40;99.90
17948;DHT22;9099;47.958;11.366;2023-09-07T02:45:36;17.40;99.90
17948;DHT22;9099;47.958;11.366;2023-09-07T02:48:05;17.30;99.90
17948;DHT22;9099;47.958;11.366;2023-09-07T02:50:33;17.20;99.90
17948;DHT22;9099;47.958;11.366;2023-09-07T02:53:00;17.10;99.90
17948;DHT22;9099;47.958;11.366;2023-09-07T02:55:28;17.00;99.90
17948;DHT22;9099;47.958;11.366;2023-09-07T02:57:56;16.80;99.90
17948;DHT22;9099;47.958;11.366;2023-09-07T03:00:23;17.00;99.90
17948;DHT22;9099;47.958;11.366;2023-09-07T03:02:50;17.00;99.90
17948;DHT22;9099;47.958;11.366;2023-09-07T03:05:19;17.00;99.90
17948;DHT22;9099;47.958;11.366;2023-09-07T03:07:46;16.90;99.90
17948;DHT22;9099;47.958;11.366;2023-09-07T03:10:14;16.80;99.90
17948;DHT22;9099;47.958;11.366;2023-09-07T03:12:41;16.70;99.90
17948;DHT22;9099;47.958;11.366;2023-09-07T03:15:08;16.60;99.90
17948;DHT22;9099;47.958;11.366;2023-09-07T03:17:35;16.60;99.90
17948;DHT22;9099;47.958;11.366;2023-09-07T03:20:02;16.50;99.90
17948;DHT22;9099;47.958;11.366;2023-09-07T03:22:40;16.40;99.90
17948;DHT22;9099;47.958;11.366;2023-09-07T03:25:08;16.40;99.90
17948;DHT22;9099;47.958;11.366;2023-09-07T03:27:35;16.40;99.90
17948;DHT22;9099;47.958;11.366;2023-09-07T03:30:02;16.30;99.90
17948;DHT22;9099;47.958;11.366;2023-09-07T03:32:31;16.20;99.90
17948;DHT22;9099;47.958;11.366;2023-09-07T03:34:58;16.20;99.90
17948;DHT22;9099;47.958;11.366;2023-09-07T03:37:26;16.10;99.90
17948;DHT22;9099;47.958;11.366;2023-09-07T03:39:55;16.10;99.90
17948;DHT22;9099;47.958;11.366;2023-09-07T03:42:22;16.00;99.90
17948;DHT22;9099;47.958;11.366;2023-09-07T03:44:49;16.30;99.90
17948;DHT22;9099;47.958;11.366;2023-09-07T03:47:15;16.30;99.90
17948;DHT22;9099;47.958;11.366;2023-09-07T03:49:42;16.20;99.90
17948;DHT22;9099;47.958;11.366;2023-09-07T03:52:09;16.10;99.90
17948;DHT22;9099;47.958;11.366;2023-09-07T03:54:37;16.00;99.90
17948;DHT22;9099;47.958;11.366;2023-09-07T03:57:05;15.90;99.90
17948;DHT22;9099;47.958;11.366;2023-09-07T03:59:32;15.90;99.90
17948;DHT22;9099;47.958;11.366;2023-09-07T04:01:59;15.90;99.90
17948;DHT22;9099;47.958;11.366;2023-09-07T04:04:26;15.90;99.90
17948;DHT22;9099;47.958;11.366;2023-09-07T04:06:53;15.90;99.90
17948;DHT22;9099;47.958;11.366;2023-09-07T04:09:19;16.00;99.90
17948;DHT22;9099;47.958;11.366;2023-09-07T04:11:46;15.90;99.90
17948;DHT22;9099;47.958;11.366;2023-09-07T04:14:15;15.80;99.90
17948;DHT22;9099;47.958;11.366;2023-09-07T04:16:42;15.80;99.90
17948;DHT22;9099;47.958;11.366;2023-09-07T04:19:09;15.80;99.90
17948;DHT22;9099;47.958;11.366;2023-09-07T04:21:36;15.90;99.90
17948;DHT22;9099;47.958;11.366;2023-09-07T04:24:04;16.00;99.90
17948;DHT22;9099;47.958;11.366;2023-09-07T04:26:32;16.00;99.90
17948;DHT22;9099;47.958;11.366;2023-09-07T04:28:59;16.00;99.90
17948;DHT22;9099;47.958;11.366;2023-09-07T04:31:27;15.90;99.90
17948;DHT22;9099;47.958;11.366;2023-09-07T04:33:54;15.70;99.90
17948;DHT22;9099;47.958;11.366;2023-09-07T04:36:21;15.50;99.90
17948;DHT22;9099;47.958;11.366;2023-09-07T04:38:48;15.20;99.90
17948;DHT22;9099;47.958;11.366;2023-09-07T04:41:15;15.20;99.90
17948;DHT22;9099;47.958;11.366;2023-09-07T04:43:43;15.10;99.90
17948;DHT22;9099;47.958;11.366;2023-09-07T04:46:10;15.00;99.90
17948;DHT22;9099;47.958;11.366;2023-09-07T04:48:39;14.90;99.90
17948;DHT22;9099;47.958;11.366;2023-09-07T04:51:08;14.90;99.90
17948;DHT22;9099;47.958;11.366;2023-09-07T04:53:37;14.80;99.90
17948;DHT22;9099;47.958;11.366;2023-09-07T04:56:04;14.80;99.90
17948;DHT22;9099;47.958;11.366;2023-09-07T04:58:32;14.70;99.90
17948;DHT22;9099;47.958;11.366;2023-09-07T05:01:01;14.70;99.90
17948;DHT22;9099;47.958;11.366;2023-09-07T05:03:29;14.70;99.90
17948;DHT22;9099;47.958;11.366;2023-09-07T05:05:57;14.60;99.90
17948;DHT22;9099;47.958;11.366;2023-09-07T05:08:24;14.60;99.90
17948;DHT22;9099;47.958;11.366;2023-09-07T05:10:55;14.60;99.90
17948;DHT22;9099;47.958;11.366;2023-09-07T05:13:22;14.60;99.90
17948;DHT22;9099;47.958;11.366;2023-09-07T05:15:49;14.60;99.90
17948;DHT22;9099;47.958;11.366;2023-09-07T05:18:16;14.70;99.90
17948;DHT22;9099;47.958;11.366;2023-09-07T05:20:43;14.70;99.90
17948;DHT22;9099;47.958;11.366;2023-09-07T05:23:13;14.70;99.90
17948;DHT22;9099;47.958;11.366;2023-09-07T05:25:44;14.80;99.90
17948;DHT22;9099;47.958;11.366;2023-09-07T05:28:12;14.90;99.90
17948;DHT22;9099;47.958;11.366;2023-09-07T05:30:40;15.10;99.90
17948;DHT22;9099;47.958;11.366;2023-09-07T05:33:07;15.50;99.90
17948;DHT22;9099;47.958;11.366;2023-09-07T05:35:34;16.20;99.90
17948;DHT22;9099;47.958;11.366;2023-09-07T05:38:01;17.10;99.90
17948;DHT22;9099;47.958;11.366;2023-09-07T05:40:29;17.90;99.90
17948;DHT22;9099;47.958;11.366;2023-09-07T05:42:56;18.80;99.90
17948;DHT22;9099;47.958;11.366;2023-09-07T05:45:23;19.50;99.90
17948;DHT22;9099;47.958;11.366;2023-09-07T05:47:50;19.90;99.90
17948;DHT22;9099;47.958;11.366;2023-09-07T05:50:17;20.50;99.90
17948;DHT22;9099;47.958;11.366;2023-09-07T05:52:43;21.10;99.90
17948;DHT22;9099;47.958;11.366;2023-09-07T05:55:10;21.60;99.90
17948;DHT22;9099;47.958;11.366;2023-09-07T05:57:38;22.00;99.90
17948;DHT22;9099;47.958;11.366;2023-09-07T06:00:06;22.40;99.90
17948;DHT22;9099;47.958;11.366;2023-09-07T06:02:33;22.80;99.90
17948;DHT22;9099;47.958;11.366;2023-09-07T06:05:01;23.30;99.90
17948;DHT22;9099;47.958;11.366;2023-09-07T06:07:28;23.80;99.90
17948;DHT22;9099;47.958;11.366;2023-09-07T06:09:55;24.10;99.90
17948;DHT22;9099;47.958;11.366;2023-09-07T06:12:24;24.50;99.90
17948;DHT22;9099;47.958;11.366;2023-09-07T06:14:52;24.90;99.90
17948;DHT22;9099;47.958;11.366;2023-09-07T06:17:19;25.10;99.90
17948;DHT22;9099;47.958;11.366;2023-09-07T06:19:46;25.50;99.90
17948;DHT22;9099;47.958;11.366;2023-09-07T06:22:13;25.80;99.90
17948;DHT22;9099;47.958;11.366;2023-09-07T06:24:40;26.10;99.90
17948;DHT22;9099;47.958;11.366;2023-09-07T06:27:07;26.50;99.90
17948;DHT22;9099;47.958;11.366;2023-09-07T06:29:33;26.90;99.90
17948;DHT22;9099;47.958;11.366;2023-09-07T06:32:02;27.20;99.90
17948;DHT22;9099;47.958;11.366;2023-09-07T06:34:29;27.40;99.90
17948;DHT22;9099;47.958;11.366;2023-09-07T06:36:55;27.60;99.90
17948;DHT22;9099;47.958;11.366;2023-09-07T06:39:22;27.70;99.90
17948;DHT22;9099;47.958;11.366;2023-09-07T06:41:49;27.70;99.90
17948;DHT22;9099;47.958;11.366;2023-09-07T06:44:16;28.00;99.90
17948;DHT22;9099;47.958;11.366;2023-09-07T06:46:43;28.10;99.90
17948;DHT22;9099;47.958;11.366;2023-09-07T06:49:12;28.30;99.90
17948;DHT22;9099;47.958;11.366;2023-09-07T06:51:38;28.70;99.90
17948;DHT22;9099;47.958;11.366;2023-09-07T06:54:05;28.60;99.90
17948;DHT22;9099;47.958;11.366;2023-09-07T06:56:32;28.90;99.90
17948;DHT22;9099;47.958;11.366;2023-09-07T06:59:00;28.90;99.90
17948;DHT22;9099;47.958;11.366;2023-09-07T07:01:27;28.30;99.90
17948;DHT22;9099;47.958;11.366;2023-09-07T07:03:53;27.90;99.90
17948;DHT22;9099;47.958;11.366;2023-09-07T07:06:24;27.60;99.90
17948;DHT22;9099;47.958;11.366;2023-09-07T07:08:52;27.20;99.90
17948;DHT22;9099;47.958;11.366;2023-09-07T07:11:19;26.90;99.90
17948;DHT22;9099;47.958;11.366;2023-09-07T07:13:46;26.70;99.90
17948;DHT22;9099;47.958;11.366;2023-09-07T07:16:13;26.60;99.90
17948;DHT22;9099;47.958;11.366;2023-09-07T07:18:40;26.70;99.90
17948;DHT22;9099;47.958;11.366;2023-09-07T07:21:07;26.80;99.90
17948;DHT22;9099;47.958;11.366;2023-09-07T07:23:36;27.10;99.90
17948;DHT22;9099;47.958;11.366;2023-09-07T07:26:03;27.30;99.90
17948;DHT22;9099;47.958;11.366;2023-09-07T07:28:30;27.70;99.90
17948;DHT22;9099;47.958;11.366;2023-09-07T07:30:56;28.10;99.90
17948;DHT22;9099;47.958;11.366;2023-09-07T07:33:23;28.50;99.90
17948;DHT22;9099;47.958;11.366;2023-09-07T07:35:50;28.80;99.90
17948;DHT22;9099;47.958;11.366;2023-09-07T07:38:17;29.50;99.90
17948;DHT22;9099;47.958;11.366;2023-09-07T07:40:46;30.10;99.90
17948;DHT22;9099;47.958;11.366;2023-09-07T07:43:13;30.90;99.90
17948;DHT22;9099;47.958;11.366;2023-09-07T07:45:40;31.20;99.90
17948;DHT22;9099;47.958;11.366;2023-09-07T07:48:06;31.80;99.90
17948;DHT22;9099;47.958;11.366;2023-09-07T07:50:37;32.30;99.90
17948;DHT22;9099;47.958;11.366;2023-09-07T07:53:04;32.40;99.90
17948;DHT22;9099;47.958;11.366;2023-09-07T07:55:34;32.30;99.90
17948;DHT22;9099;47.958;11.366;2023-09-07T07:58:05;32.80;99.90
17948;DHT22;9099;47.958;11.366;2023-09-07T08:00:33;33.20;99.90
17948;DHT22;9099;47.958;11.366;2023-09-07T08:03:00;33.10;99.90
17948;DHT22;9099;47.958;11.366;2023-09-07T08:05:28;32.80;99.90
17948;DHT22;9099;47.958;11.366;2023-09-07T08:07:56;33.00;99.90
17948;DHT22;9099;47.958;11.366;2023-09-07T08:10:23;33.50;99.90
17948;DHT22;9099;47.958;11.366;2023-09-07T08:12:53;33.30;99.90
17948;DHT22;9099;47.958;11.366;2023-09-07T08:15:22;33.20;99.90
17948;DHT22;9099;47.958;11.366;2023-09-07T08:17:50;33.40;99.90
17948;DHT22;9099;47.958;11.366;2023-09-07T08:20:17;34.00;99.90
17948;DHT22;9099;47.958;11.366;2023-09-07T08:22:44;34.50;99.90
17948;DHT22;9099;47.958;11.366;2023-09-07T08:25:11;34.70;99.90
17948;DHT22;9099;47.958;11.366;2023-09-07T08:27:39;35.40;99.90
17948;DHT22;9099;47.958;11.366;2023-09-07T08:30:11;35.80;99.90
17948;DHT22;9099;47.958;11.366;2023-09-07T08:32:39;35.80;99.90
17948;DHT22;9099;47.958;11.366;2023-09-07T08:35:08;35.70;99.90
17948;DHT22;9099;47.958;11.366;2023-09-07T08:37:38;35.60;99.90
17948;DHT22;9099;47.958;11.366;2023-09-07T08:40:06;35.60;99.90
17948;DHT22;9099;47.958;11.366;2023-09-07T08:42:35;35.70;99.90
17948;DHT22;9099;47.958;11.366;2023-09-07T08:45:03;35.90;99.90
17948;DHT22;9099;47.958;11.366;2023-09-07T08:47:33;35.30;99.90
17948;DHT22;9099;47.958;11.366;2023-09-07T08:50:02;35.30;99.90
17948;DHT22;9099;47.958;11.366;2023-09-07T08:52:31;35.90;99.90
17948;DHT22;9099;47.958;11.366;2023-09-07T08:54:58;36.80;99.90
17948;DHT22;9099;47.958;11.366;2023-09-07T08:57:27;37.70;99.90
17948;DHT22;9099;47.958;11.366;2023-09-07T08:59:56;37.90;99.90
17948;DHT22;9099;47.958;11.366;2023-09-07T09:02:23;38.80;99.90
17948;DHT22;9099;47.958;11.366;2023-09-07T09:04:50;38.80;99.70
17948;DHT22;9099;47.958;11.366;2023-09-07T09:07:19;37.80;97.80
17948;DHT22;9099;47.958;11.366;2023-09-07T09:09:46;37.50;99.50
17948;DHT22;9099;47.958;11.366;2023-09-07T09:12:13;37.30;99.50
17948;DHT22;9099;47.958;11.366;2023-09-07T09:14:42;37.40;99.70
17948;DHT22;9099;47.958;11.366;2023-09-07T09:17:11;37.30;99.90
17948;DHT22;9099;47.958;11.366;2023-09-07T09:19:39;37.30;99.50
17948;DHT22;9099;47.958;11.366;2023-09-07T09:22:07;37.20;99.60
17948;DHT22;9099;47.958;11.366;2023-09-07T09:24:35;37.60;99.10
17948;DHT22;9099;47.958;11.366;2023-09-07T09:27:03;37.80;99.90
17948;DHT22;9099;47.958;11.366;2023-09-07T09:29:32;37.90;99.70
17948;DHT22;9099;47.958;11.366;2023-09-07T09:32:00;37.80;99.60
17948;DHT22;9099;47.958;11.366;2023-09-07T09:34:32;37.70;99.30
17948;DHT22;9099;47.958;11.366;2023-09-07T09:36:59;38.10;98.40
17948;DHT22;9099;47.958;11.366;2023-09-07T09:39:26;37.90;98.60
17948;DHT22;9099;47.958;11.366;2023-09-07T09:41:54;37.70;99.90
17948;DHT22;9099;47.958;11.366;2023-09-07T09:44:23;37.70;99.90
17948;DHT22;9099;47.958;11.366;2023-09-07T09:46:52;37.60;99.80
17948;DHT22;9099;47.958;11.366;2023-09-07T09:49:21;37.50;99.90
17948;DHT22;9099;47.958;11.366;2023-09-07T09:51:48;37.20;99.70
17948;DHT22;9099;47.958;11.366;2023-09-07T09:54:17;37.30;99.50
17948;DHT22;9099;47.958;11.366;2023-09-07T09:56:44;37.30;99.90
17948;DHT22;9099;47.958;11.366;2023-09-07T09:59:14;37.30;99.90
17948;DHT22;9099;47.958;11.366;2023-09-07T10:01:43;37.30;99.90
17948;DHT22;9099;47.958;11.366;2023-09-07T10:04:12;37.30;99.90
17948;DHT22;9099;47.958;11.366;2023-09-07T10:06:50;37.00;99.30
17948;DHT22;9099;47.958;11.366;2023-09-07T10:09:17;36.60;99.90
17948;DHT22;9099;47.958;11.366;2023-09-07T10:11:51;36.40;99.90
17948;DHT22;9099;47.958;11.366;2023-09-07T10:14:20;36.40;99.90
17948;DHT22;9099;47.958;11.366;2023-09-07T10:16:48;36.60;99.90
17948;DHT22;9099;47.958;11.366;2023-09-07T10:19:15;36.80;99.90
17948;DHT22;9099;47.958;11.366;2023-09-07T10:21:42;36.90;99.90
17948;DHT22;9099;47.958;11.366;2023-09-07T10:24:09;36.80;99.90
17948;DHT22;9099;47.958;11.366;2023-09-07T10:26:36;37.00;99.90
17948;DHT22;9099;47.958;11.366;2023-09-07T10:29:03;37.10;99.90
17948;DHT22;9099;47.958;11.366;2023-09-07T10:31:32;37.30;99.90
17948;DHT22;9099;47.958;11.366;2023-09-07T10:34:09;37.40;99.90
17948;DHT22;9099;47.958;11.366;2023-09-07T10:36:37;37.40;99.90
17948;DHT22;9099;47.958;11.366;2023-09-07T10:39:04;36.50;99.90
17948;DHT22;9099;47.958;11.366;2023-09-07T10:41:40;36.70;99.90
17948;DHT22;9099;47.958;11.366;2023-09-07T10:44:08;36.90;99.90
17948;DHT22;9099;47.958;11.366;2023-09-07T10:46:38;36.80;99.90
17948;DHT22;9099;47.958;11.366;2023-09-07T10:49:07;37.10;99.90
17948;DHT22;9099;47.958;11.366;2023-09-07T10:51:41;37.30;99.90
17948;DHT22;9099;47.958;11.366;2023-09-07T10:54:15;37.60;99.90
17948;DHT22;9099;47.958;11.366;2023-09-07T10:56:44;37.60;99.90
17948;DHT22;9099;47.958;11.366;2023-09-07T10:59:11;37.30;99.90
17948;DHT22;9099;47.958;11.366;2023-09-07T11:01:39;37.40;99.90
17948;DHT22;9099;47.958;11.366;2023-09-07T11:04:06;37.60;99.90
17948;DHT22;9099;47.958;11.366;2023-09-07T11:06:37;37.60;99.90
17948;DHT22;9099;47.958;11.366;2023-09-07T11:09:04;37.60;99.60
17948;DHT22;9099;47.958;11.366;2023-09-07T11:11:34;37.30;99.70
17948;DHT22;9099;47.958;11.366;2023-09-07T11:14:02;36.90;99.80
17948;DHT22;9099;47.958;11.366;2023-09-07T11:16:30;36.80;99.20
17948;DHT22;9099;47.958;11.366;2023-09-07T11:19:02;36.10;99.90
17948;DHT22;9099;47.958;11.366;2023-09-07T11:21:30;35.70;99.90
17948;DHT22;9099;47.958;11.366;2023-09-07T11:23:58;35.80;99.90
17948;DHT22;9099;47.958;11.366;2023-09-07T11:26:25;35.70;99.90
17948;DHT22;9099;47.958;11.366;2023-09-07T11:28:52;35.10;99.90
17948;DHT22;9099;47.958;11.366;2023-09-07T11:31:19;34.70;99.90
17948;DHT22;9099;47.958;11.366;2023-09-07T11:33:47;34.20;99.90
17948;DHT22;9099;47.958;11.366;2023-09-07T11:36:16;34.00;99.90
17948;DHT22;9099;47.958;11.366;2023-09-07T11:38:43;34.40;99.90
17948;DHT22;9099;47.958;11.366;2023-09-07T11:41:11;34.50;99.90
17948;DHT22;9099;47.958;11.366;2023-09-07T11:43:38;34.40;99.90
17948;DHT22;9099;47.958;11.366;2023-09-07T11:46:07;34.30;99.90
17948;DHT22;9099;47.958;11.366;2023-09-07T11:48:35;34.40;99.90
17948;DHT22;9099;47.958;11.366;2023-09-07T11:51:02;34.40;99.90
17948;DHT22;9099;47.958;11.366;2023-09-07T11:53:30;34.10;99.90
17948;DHT22;9099;47.958;11.366;2023-09-07T11:55:57;34.10;99.90
17948;DHT22;9099;47.958;11.366;2023-09-07T11:58:24;34.50;99.90
17948;DHT22;9099;47.958;11.366;2023-09-07T12:00:52;34.50;99.90
17948;DHT22;9099;47.958;11.366;2023-09-07T12:03:20;34.60;99.90
17948;DHT22;9099;47.958;11.366;2023-09-07T12:05:47;34.80;99.90
17948;DHT22;9099;47.958;11.366;2023-09-07T12:08:14;34.70;99.90
17948;DHT22;9099;47.958;11.366;2023-09-07T12:10:42;34.60;99.90
17948;DHT22;9099;47.958;11.366;2023-09-07T12:13:09;34.50;99.90
17948;DHT22;9099;47.958;11.366;2023-09-07T12:15:36;33.90;99.90
17948;DHT22;9099;47.958;11.366;2023-09-07T12:18:03;34.00;99.90
17948;DHT22;9099;47.958;11.366;2023-09-07T12:20:30;34.00;99.90
17948;DHT22;9099;47.958;11.366;2023-09-07T12:22:57;34.00;99.90
17948;DHT22;9099;47.958;11.366;2023-09-07T12:25:24;34.00;99.90
17948;DHT22;9099;47.958;11.366;2023-09-07T12:27:53;33.70;99.90
17948;DHT22;9099;47.958;11.366;2023-09-07T12:30:21;34.10;99.90
17948;DHT22;9099;47.958;11.366;2023-09-07T12:32:49;34.60;99.90
17948;DHT22;9099;47.958;11.366;2023-09-07T12:35:16;34.50;99.90
17948;DHT22;9099;47.958;11.366;2023-09-07T12:37:45;34.40;99.90
17948;DHT22;9099;47.958;11.366;2023-09-07T12:40:12;34.50;99.90
17948;DHT22;9099;47.958;11.366;2023-09-07T12:42:40;34.80;99.90
17948;DHT22;9099;47.958;11.366;2023-09-07T12:45:10;34.80;99.90
17948;DHT22;9099;47.958;11.366;2023-09-07T12:47:37;34.60;99.90
17948;DHT22;9099;47.958;11.366;2023-09-07T12:50:04;34.20;99.90
17948;DHT22;9099;47.958;11.366;2023-09-07T12:52:32;34.50;99.90
17948;DHT22;9099;47.958;11.366;2023-09-07T12:55:00;34.80;99.90
17948;DHT22;9099;47.958;11.366;2023-09-07T12:57:26;35.00;99.90
17948;DHT22;9099;47.958;11.366;2023-09-07T12:59:53;34.90;99.90
17948;DHT22;9099;47.958;11.366;2023-09-07T13:02:21;35.20;99.90
17948;DHT22;9099;47.958;11.366;2023-09-07T13:04:48;35.10;99.90
17948;DHT22;9099;47.958;11.366;2023-09-07T13:07:15;35.30;99.90
17948;DHT22;9099;47.958;11.366;2023-09-07T13:09:43;35.60;99.90
17948;DHT22;9099;47.958;11.366;2023-09-07T13:12:11;35.60;99.90
17948;DHT22;9099;47.958;11.366;2023-09-07T13:14:37;35.20;99.90
17948;DHT22;9099;47.958;11.366;2023-09-07T13:17:04;34.70;99.90
17948;DHT22;9099;47.958;11.366;2023-09-07T13:19:33;34.00;99.90
17948;DHT22;9099;47.958;11.366;2023-09-07T13:21:59;34.00;99.90
17948;DHT22;9099;47.958;11.366;2023-09-07T13:24:26;34.30;99.90
17948;DHT22;9099;47.958;11.366;2023-09-07T13:26:53;34.50;99.90
17948;DHT22;9099;47.958;11.366;2023-09-07T13:29:21;34.80;99.90
17948;DHT22;9099;47.958;11.366;2023-09-07T13:31:48;34.40;99.90
17948;DHT22;9099;47.958;11.366;2023-09-07T13:34:15;34.40;99.90
17948;DHT22;9099;47.958;11.366;2023-09-07T13:36:43;34.10;99.90
17948;DHT22;9099;47.958;11.366;2023-09-07T13:39:10;34.10;99.90
17948;DHT22;9099;47.958;11.366;2023-09-07T13:41:37;34.40;99.90
17948;DHT22;9099;47.958;11.366;2023-09-07T13:44:04;34.30;99.90
17948;DHT22;9099;47.958;11.366;2023-09-07T13:46:31;34.50;99.90
17948;DHT22;9099;47.958;11.366;2023-09-07T13:48:59;34.60;99.90
17948;DHT22;9099;47.958;11.366;2023-09-07T13:51:26;34.60;99.90
17948;DHT22;9099;47.958;11.366;2023-09-07T13:53:54;34.20;99.90
17948;DHT22;9099;47.958;11.366;2023-09-07T13:56:21;34.30;99.90
17948;DHT22;9099;47.958;11.366;2023-09-07T13:58:48;34.30;99.90
17948;DHT22;9099;47.958;11.366;2023-09-07T14:01:15;34.10;99.90
17948;DHT22;9099;47.958;11.366;2023-09-07T14:03:42;34.10;99.90
17948;DHT22;9099;47.958;11.366;2023-09-07T14:06:09;34.00;99.90
17948;DHT22;9099;47.958;11.366;2023-09-07T14:08:36;33.90;99.90
17948;DHT22;9099;47.958;11.366;2023-09-07T14:11:04;34.10;99.90
17948;DHT22;9099;47.958;11.366;2023-09-07T14:13:31;33.80;99.90
17948;DHT22;9099;47.958;11.366;2023-09-07T14:16:00;33.50;99.90
17948;DHT22;9099;47.958;11.366;2023-09-07T14:18:27;33.00;99.90
17948;DHT22;9099;47.958;11.366;2023-09-07T14:20:54;33.00;99.90
17948;DHT22;9099;47.958;11.366;2023-09-07T14:23:23;32.70;99.90
17948;DHT22;9099;47.958;11.366;2023-09-07T14:25:51;32.20;99.90
17948;DHT22;9099;47.958;11.366;2023-09-07T14:28:19;32.10;99.90
17948;DHT22;9099;47.958;11.366;2023-09-07T14:30:46;32.10;99.90
17948;DHT22;9099;47.958;11.366;2023-09-07T14:33:13;32.20;99.90
17948;DHT22;9099;47.958;11.366;2023-09-07T14:35:40;32.40;99.90
17948;DHT22;9099;47.958;11.366;2023-09-07T14:38:07;32.60;99.90
17948;DHT22;9099;47.958;11.366;2023-09-07T14:40:34;32.40;99.90
17948;DHT22;9099;47.958;11.366;2023-09-07T14:43:01;32.20;99.90
17948;DHT22;9099;47.958;11.366;2023-09-07T14:45:29;31.60;99.90
17948;DHT22;9099;47.958;11.366;2023-09-07T14:47:56;31.30;99.90
17948;DHT22;9099;47.958;11.366;2023-09-07T14:50:22;31.30;99.90
17948;DHT22;9099;47.958;11.366;2023-09-07T14:52:49;31.40;99.90
17948;DHT22;9099;47.958;11.366;2023-09-07T14:55:17;31.10;99.90
17948;DHT22;9099;47.958;11.366;2023-09-07T14:57:44;31.10;99.90
17948;DHT22;9099;47.958;11.366;2023-09-07T15:00:12;31.00;99.90
17948;DHT22;9099;47.958;11.366;2023-09-07T15:02:40;31.00;99.90
17948;DHT22;9099;47.958;11.366;2023-09-07T15:05:07;31.10;99.90
17948;DHT22;9099;47.958;11.366;2023-09-07T15:07:34;30.90;99.90
17948;DHT22;9099;47.958;11.366;2023-09-07T15:10:01;30.60;99.90
17948;DHT22;9099;47.958;11.366;2023-09-07T15:12:30;30.30;99.90
17948;DHT22;9099;47.958;11.366;2023-09-07T15:14:56;30.20;99.90
17948;DHT22;9099;47.958;11.366;2023-09-07T15:17:23;30.40;99.90
17948;DHT22;9099;47.958;11.366;2023-09-07T15:19:51;30.20;99.90
17948;DHT22;9099;47.958;11.366;2023-09-07T15:22:18;30.10;99.90
17948;DHT22;9099;47.958;11.366;2023-09-07T15:24:45;30.10;99.90
17948;DHT22;9099;47.958;11.366;2023-09-07T15:27:12;30.00;99.90
17948;DHT22;9099;47.958;11.366;2023-09-07T15:29:39;30.00;99.90
17948;DHT22;9099;47.958;11.366;2023-09-07T15:32:06;29.90;99.90